Springfield-Branson National Airport Airport (SGF)

 

Airport Diagram
Current Weather/Forecast (VFR Conditions)
METAR KSGF 280017Z 31004KT 10SM VCTS -RA FEW055 FEW075 OVC110 17/16 A2984 RMK AO2 LTG DSNT N AND E TSE11 P0004 T01670161 $
TAF KSGF 272335Z 2800/2824 10006KT P6SM VCSH BKN050 TEMPO 2800/2801 2SM TSRA OVC025CB FM280500 00000KT P6SM SCT180 FM280900 00000KT 3SM BR BKN120 FM281100 VRB03KT 2SM BR BKN120 FM281300 VRB03KT P6SM OVC120 PROB30 2819/2823 4SM TSRA OVC025CB FM282300 33010KT P6SM -SHRA OVC060 PROB30 2823/2824 4SM TSRA OVC025CB

All Charts
General
Chart Name Download
AIRPORT DIAGRAM
TAKEOFF MINIMUMS
ALTERNATE MINIMUMS
HOT SPOT

Approaches
Chart Name Download
ILS OR LOC RWY 02
ILS OR LOC RWY 14
RNAV (GPS) RWY 02
RNAV (GPS) RWY 14
RNAV (GPS) RWY 20
RNAV (GPS) RWY 32
VOR/DME OR TACAN RWY 02
VOR OR TACAN RWY 20
HI-TACAN RWY 20


Inbound Traffic (Arrivals)

No inbound traffic.


Outbound Traffic (Departures)

No outbound traffic.